Exmouth Airport


Codes: YEXM/EXM
Name: Exmouth Airport
City:
Country: Australia
Elevation: 0 ft.

Photos at Exmouth Airport


   Photos courtesy of SpottingLog. You can add your own sightings and photos by signing up for a free trial today.



No photos found.

Weather at Exmouth Airport


Time (UTC)DescriptionTempratureWindCloud coverageVisibilityPressureHumidity
19-Apr-2024 03:00Overcast Clouds30°C9 mph, E100%10000m1017hPa28%
19-Apr-2024 06:00Overcast Clouds30°C9 mph, NE100%10000m1016hPa27%
19-Apr-2024 09:00Overcast Clouds29°C7 mph, N100%10000m1015hPa34%
19-Apr-2024 12:00Overcast Clouds27°C2 mph, NW91%10000m1016hPa49%
19-Apr-2024 15:00Broken Clouds27°C4 mph, W74%10000m1016hPa52%
19-Apr-2024 18:00Broken Clouds26°C7 mph, SW64%10000m1015hPa54%
19-Apr-2024 21:00Overcast Clouds25°C7 mph, S91%10000m1015hPa60%
20-Apr-2024 00:00Broken Clouds26°C11 mph, S54%10000m1017hPa52%
20-Apr-2024 03:00Clear Sky29°C16 mph, E0%10000m1017hPa32%
20-Apr-2024 06:00Clear Sky30°C16 mph, NE0%10000m1014hPa32%
20-Apr-2024 09:00Clear Sky29°C13 mph, N0%10000m1014hPa39%
20-Apr-2024 12:00Clear Sky27°C4 mph, NW0%10000m1016hPa49%
20-Apr-2024 15:00Clear Sky26°C2 mph, S0%10000m1017hPa49%
20-Apr-2024 18:00Clear Sky25°C7 mph, S0%10000m1016hPa47%
20-Apr-2024 21:00Clear Sky25°C9 mph, SW0%10000m1016hPa52%
21-Apr-2024 00:00Clear Sky25°C4 mph, SE0%10000m1017hPa55%
21-Apr-2024 03:00Clear Sky29°C11 mph, NE0%10000m1017hPa32%
21-Apr-2024 06:00Clear Sky30°C11 mph, NE0%10000m1015hPa26%
21-Apr-2024 09:00Clear Sky29°C9 mph, N0%10000m1014hPa29%
21-Apr-2024 12:00Clear Sky26°C9 mph, W0%10000m1015hPa44%
21-Apr-2024 15:00Clear Sky26°C9 mph, SW0%10000m1016hPa52%
21-Apr-2024 18:00Clear Sky25°C9 mph, SW0%10000m1014hPa61%
21-Apr-2024 21:00Clear Sky24°C11 mph, S0%10000m1013hPa57%
22-Apr-2024 00:00Clear Sky25°C9 mph, SE0%10000m1015hPa37%
22-Apr-2024 03:00Clear Sky28°C13 mph, E2%10000m1015hPa38%
22-Apr-2024 06:00Clear Sky30°C11 mph, NE3%10000m1013hPa37%
22-Apr-2024 09:00Clear Sky29°C9 mph, N2%10000m1012hPa40%
22-Apr-2024 12:00Clear Sky26°C9 mph, SW2%10000m1014hPa56%
22-Apr-2024 15:00Clear Sky26°C9 mph, W4%10000m1014hPa63%
22-Apr-2024 18:00Clear Sky25°C7 mph, SW7%10000m1013hPa68%
22-Apr-2024 21:00Broken Clouds25°C7 mph, SE52%10000m1013hPa57%
23-Apr-2024 00:00Broken Clouds26°C13 mph, E72%10000m1013hPa43%
23-Apr-2024 03:00Broken Clouds29°C13 mph, E69%10000m1014hPa36%
23-Apr-2024 06:00Broken Clouds30°C13 mph, NE84%10000m1012hPa30%
23-Apr-2024 09:00Broken Clouds29°C9 mph, N83%10000m1012hPa36%
23-Apr-2024 12:00Broken Clouds26°C7 mph, N79%10000m1014hPa53%
23-Apr-2024 15:00Broken Clouds25°C4 mph, W72%10000m1014hPa60%
23-Apr-2024 18:00Broken Clouds25°C2 mph, S51%10000m1013hPa58%
23-Apr-2024 21:00Overcast Clouds24°C4 mph, SE100%10000m1013hPa54%
24-Apr-2024 00:00Broken Clouds25°C13 mph, SE82%10000m1014hPa50%